Flight Track Log - Related Links

Times and Time Zones

All times are in EDT time to prevent confusion due to time zone crossing. See the N561EJ flight status page for this flight to view local times or setup timezone preferences in your user account.

Time Position Orientation Groundspeed Altitude Reporting Facility
EDT Latitude Longitude Course Direction KTS MPH feet Rate Location/Type
Tue 04:28:28 PM 35.3997 -97.5944 35° Northeast 150 173 2,100  Level Fort Worth Center
Tue 04:29:23 PM 35.4417 -97.5589 35° Northeast 227 261 4,800 2,756 Climbing Fort Worth Center
Tue 04:30:43 PM 35.4353 -97.4544 94° East 250 288 8,300 2,271 Climbing Fort Worth Center
Tue 04:31:43 PM 35.4167 -97.3703 105° East 255 293 10,100 1,700 Climbing Fort Worth Center
Tue 04:32:43 PM 35.3728 -97.2864 123° Southeast 267 307 11,700 1,650 Climbing Fort Worth Center
Tue 04:33:43 PM 35.3308 -97.1947 119° Southeast 293 337 13,400 1,600 Climbing Fort Worth Center
Tue 04:34:43 PM 35.2869 -97.1058 121° Southeast 313 360 14,900 1,600 Climbing Fort Worth Center
Tue 04:35:43 PM 35.2408 -97.0094 120° Southeast 325 374 16,600 1,550 Climbing Fort Worth Center
Tue 04:36:43 PM 35.1944 -96.9056 119° Southeast 335 386 18,000 1,550 Climbing Fort Worth Center
Tue 04:37:43 PM 35.1461 -96.8017 120° Southeast 340 391 19,700 1,650 Climbing Fort Worth Center
Tue 04:38:43 PM 35.0933 -96.6928 121° Southeast 353 406 21,300 1,650 Climbing Fort Worth Center
Tue 04:39:43 PM 35.0447 -96.5842 119° Southeast 353 406 23,000 1,650 Climbing Fort Worth Center
Tue 04:40:43 PM 34.9939 -96.4758 120° Southeast 358 412 24,600 1,650 Climbing Fort Worth Center
Tue 04:41:43 PM 34.9431 -96.3675 120° Southeast 358 412 26,300 1,650 Climbing Fort Worth Center
Tue 04:42:43 PM 34.8900 -96.2567 120° Southeast 358 412 27,900 1,650 Climbing Fort Worth Center
Tue 04:43:43 PM 34.8389 -96.1486 120° Southeast 358 412 29,600 1,500 Climbing Fort Worth Center
Tue 04:44:43 PM 34.7878 -96.0431 121° Southeast 358 412 30,900 700 Climbing Fort Worth Center
Tue 04:45:43 PM 34.7342 -95.9278 119° Southeast 363 418 31,000 50 Climbing Fort Worth Center
Tue 04:46:43 PM 34.6742 -95.8050 121° Southeast 392 451 31,000  Level Fort Worth Center
Tue 04:47:43 PM 34.6100 -95.6750 121° Southeast 425 489 31,000 450 Level Fort Worth Center
Tue 04:48:43 PM 34.5453 -95.5253 118° Southeast 446 513 31,900 1,200 Climbing Fort Worth Center
Tue 04:49:43 PM 34.4808 -95.4031 123° Southeast 444 511 33,400 1,350 Climbing Fort Worth Center
Tue 04:50:43 PM 34.4289 -95.2986 121° Southeast 430 495 34,600 1,300 Climbing Fort Worth Center
Tue 04:51:43 PM 34.3747 -95.1817 119° Southeast 407 468 36,000 1,300 Climbing Fort Worth Center
Tue 04:52:43 PM 34.3206 -95.0700 120° Southeast 397 457 37,200 1,150 Climbing Fort Worth Center
Tue 04:53:43 PM 34.2683 -94.9583 119° Southeast 387 445 38,300 950 Climbing Fort Worth Center
Tue 04:54:43 PM 34.2161 -94.8492 120° Southeast 381 438 39,100 700 Climbing Fort Worth Center
Tue 04:55:43 PM 34.1617 -94.7403 121° Southeast 381 438 39,700 500 Climbing Fort Worth Center
Tue 04:56:43 PM 34.1050 -94.6292 122° Southeast 381 438 40,100 450 Climbing Fort Worth Center
Tue 04:57:43 PM 34.0522 -94.5181 120° Southeast 381 438 40,600 450 Climbing Fort Worth Center
Tue 04:58:43 PM 33.9956 -94.4047 121° Southeast 381 438 41,000 200 Climbing Fort Worth Center
Tue 04:59:43 PM 33.9383 -94.2892 121° Southeast 391 450 41,000  Level Fort Worth Center
Tue 05:00:43 PM 33.8789 -94.1686 121° Southeast 402 463 41,000  Level Fort Worth Center
Tue 05:01:43 PM 33.8194 -94.0508 121° Southeast 402 463 41,000  Level Fort Worth Center
Tue 05:02:43 PM 33.7556 -93.9258 122° Southeast 417 480 41,000  Level Fort Worth Center
Tue 05:03:43 PM 33.6958 -93.8011 120° Southeast 422 486 41,000  Level Fort Worth Center
Tue 05:04:43 PM 33.6314 -93.6739 121° Southeast 432 497 41,000  Level Fort Worth Center
Tue 05:05:43 PM 33.5650 -93.5447 122° Southeast 444 511 41,000  Level Fort Worth Center
Tue 05:06:43 PM 33.4983 -93.4181 122° Southeast 444 511 41,000  Level Fort Worth Center
Tue 05:07:43 PM 33.4269 -93.2769 121° Southeast 444 511 41,000  Level Fort Worth Center
Tue 05:08:43 PM 33.3622 -93.1483 121° Southeast 444 511 41,000  Level Fort Worth Center
Tue 05:09:43 PM 33.2931 -93.0172 122° Southeast 449 517 41,000  Level Fort Worth Center
Tue 05:10:43 PM 33.2258 -92.8867 122° Southeast 455 524 41,000  Level Fort Worth Center
Tue 05:11:43 PM 33.1583 -92.7561 122° Southeast 462 532 41,000  Level Fort Worth Center
Tue 05:12:43 PM 33.0908 -92.6258 122° Southeast 462 532 41,000  Level Fort Worth Center
Tue 05:13:43 PM 33.0211 -92.4933 122° Southeast 467 537 41,000  Level Fort Worth Center
Tue 05:14:43 PM 32.9511 -92.3633 123° Southeast 467 537 41,000  Level Fort Worth Center
Tue 05:15:43 PM 32.8831 -92.2314 122° Southeast 467 537 41,000  Level Fort Worth Center
Tue 05:16:43 PM 32.8150 -92.0992 121° Southeast 467 537 41,000  Level Fort Worth Center
Tue 05:18:34 PM 32.6839 -91.8678 124° Southeast 489 563 41,000  Level Memphis Center
Tue 05:19:34 PM 32.6142 -91.7383 123° Southeast 481 554 41,000  Level Memphis Center
Tue 05:20:34 PM 32.5447 -91.6044 122° Southeast 481 554 41,000  Level Memphis Center
Tue 05:21:34 PM 32.4750 -91.4753 123° Southeast 481 554 41,000  Level Memphis Center
Tue 05:22:34 PM 32.4031 -91.3392 122° Southeast 481 554 41,000  Level Memphis Center
Tue 05:23:34 PM 32.3331 -91.2106 123° Southeast 481 554 41,000  Level Memphis Center
Tue 05:24:34 PM 32.2525 -91.0647 123° Southeast 481 554 41,000  Level Memphis Center
Tue 05:25:34 PM 32.1842 -90.9342 122° Southeast 481 554 41,000  Level Memphis Center
Tue 05:26:34 PM 32.1117 -90.8011 123° Southeast 481 554 41,000  Level Memphis Center
Tue 05:27:34 PM 32.0389 -90.6711 123° Southeast 481 554 41,000 -950 Level Memphis Center
Tue 05:28:34 PM 31.9619 -90.5361 124° Southeast 486 559 39,100 -1,950 Descending Memphis Center
Tue 05:29:34 PM 31.8892 -90.4039 123° Southeast 491 565 37,100 -2,017 Descending Memphis Center
Tue 05:30:33 PM 31.8169 -90.2778 124° Southeast 488 562 35,100 -2,016 Descending Houston Center
Tue 05:31:36 PM 31.7458 -90.1472 123° Southeast 477 549 33,000 -2,016 Descending Houston Center
Tue 05:32:38 PM 31.6750 -90.0228 124° Southeast 462 532 30,900 -1,984 Descending Houston Center
Tue 05:33:40 PM 31.6058 -89.8997 123° Southeast 454 522 28,900 -1,887 Descending Houston Center
Tue 05:34:42 PM 31.5372 -89.7772 123° Southeast 449 517 27,000 -2,081 Descending Houston Center
Tue 05:35:44 PM 31.4581 -89.6383 124° Southeast 429 494 24,600 -2,032 Descending Houston Center
Tue 05:36:46 PM 31.4019 -89.5386 123° Southeast 405 466 22,800 -1,645 Descending Houston Center
Tue 05:37:48 PM 31.3625 -89.4211 111° Southeast 397 457 21,200 -1,694 Descending Houston Center
Tue 05:38:50 PM 31.3294 -89.2728 105° East 395 455 19,300 -1,632 Descending Houston Center
Tue 05:39:53 PM 31.3103 -89.1467 100° East 394 453 17,800 -1,488 Descending Houston Center
Tue 05:40:55 PM 31.2906 -89.0258 101° East 385 443 16,200 -1,548 Descending Houston Center
Tue 05:41:57 PM 31.2561 -88.9244 112° Southeast 354 407 14,600 -1,548 Descending Houston Center
Tue 05:42:59 PM 31.1897 -88.8450 134° Southeast 345 397 13,000 -1,548 Descending Houston Center
Tue 05:44:01 PM 31.1283 -88.7689 133° Southeast 330 380 11,400 -1,742 Descending Houston Center
Tue 05:45:03 PM 31.0567 -88.6842 135° Southeast 314 361 9,400 -1,935 Descending Houston Center
Tue 05:46:05 PM 31.0044 -88.6203 134° Southeast 286 329 7,400 -1,887 Descending Houston Center
Tue 05:47:07 PM 30.9544 -88.5594 134° Southeast 269 310 5,500 -1,488 Descending Houston Center
Tue 05:48:10 PM 30.9075 -88.5033 134° Southeast 252 290 4,300 -1,008 Descending Houston Center
Tue 05:49:12 PM 30.8603 -88.4467 134° Southeast 246 283 3,400 -823 Descending Houston Center
Tue 05:50:14 PM 30.8053 -88.3806 134° Southeast 243 280 2,600 -677 Descending Houston Center
Tue 05:51:16 PM 30.7714 -88.3258 126° Southeast 226 260 2,000 -629 Descending Houston Center
Tue 05:52:18 PM 30.7439 -88.2853 128° Southeast 188 216 1,300 -677 Descending Houston Center
Tue 05:53:20 PM 30.7161 -88.2639 146° Southeast 147 169 600 -484 Descending Houston Center
Tue 05:54:22 PM 30.6847 -88.2389 146° Southeast 136 157 300 -290 Descending Houston Center
Tue 05:56:00 PM 30.6833 -88.2333 North  Level FlightAware Approximate

Login

Don't have an account? Register now (free) for customized features, flight alerts, and more!